Time;durP1;ratioP1;P1;durP2;ratioP2;P2;SDS_P1;SDS_P2;PMS_P1;PMS_P2;Temp;Humidity;BMP_temperature;BMP_pressure;BME280_temperature;BME280_humidity;BME280_pressure;Samples;Min_cycle;Max_cycle;Signal;HPM_P1;HPM_P2
2022/05/18 00:00:23;;;;;;;21.35;9.60;;;;;;;16.56;76.72;98913.13;5143469;27;20470;-94
2022/05/18 00:02:53;;;;;;;17.45;9.20;;;;;;;16.41;77.00;98895.09;5163554;27;20039;-93
2022/05/18 00:05:20;;;;;;;21.07;9.13;;;;;;;16.29;77.86;98893.91;5153647;27;20047;-94
2022/05/18 00:07:46;;;;;;;20.90;8.68;;;;;;;16.37;77.43;98897.09;5145995;27;20536;-94
2022/05/18 00:10:13;;;;;;;24.58;9.75;;;;;;;16.32;77.51;98900.94;5146534;27;20047;-94
2022/05/18 00:12:43;;;;;;;21.00;9.93;;;;;;;16.20;78.41;98891.66;5145915;27;20075;-93
2022/05/18 00:15:14;;;;;;;19.83;9.90;;;;;;;16.15;78.31;98891.84;5124417;28;20048;-95
2022/05/18 00:17:40;;;;;;;22.13;9.80;;;;;;;16.07;78.97;98879.75;5124102;28;20047;-93
2022/05/18 00:20:10;;;;;;;19.15;9.25;;;;;;;16.08;79.34;98893.09;5124344;28;20052;-94
2022/05/18 00:22:43;;;;;;;24.92;10.38;;;;;;;16.07;79.41;98896.75;5124118;28;20047;-95
2022/05/18 00:25:09;;;;;;;18.27;9.23;;;;;;;16.14;78.90;98898.19;5124647;28;20051;-94
2022/05/18 00:27:36;;;;;;;20.70;9.65;;;;;;;16.12;78.85;98891.16;5124051;28;20095;-94
2022/05/18 00:30:02;;;;;;;18.08;10.15;;;;;;;16.10;79.06;98893.91;5123880;28;20051;-94
2022/05/18 00:32:29;;;;;;;17.13;8.18;;;;;;;16.05;79.77;98889.69;5123881;28;20054;-94
2022/05/18 00:34:55;;;;;;;19.75;9.30;;;;;;;16.05;79.66;98895.94;5123798;28;20047;-94
2022/05/18 00:37:23;;;;;;;19.98;9.25;;;;;;;16.05;79.79;98892.38;5124338;28;20040;-94
2022/05/18 00:39:49;;;;;;;15.65;8.68;;;;;;;16.05;79.93;98895.06;5109807;28;20048;-94
2022/05/18 00:42:19;;;;;;;22.25;9.07;;;;;;;16.02;80.73;98896.06;5110229;28;20040;-94
2022/05/18 00:44:46;;;;;;;21.17;8.98;;;;;;;16.08;79.89;98892.25;5110951;28;20069;-95
2022/05/18 00:47:12;;;;;;;21.70;9.40;;;;;;;16.09;80.33;98896.66;5112025;28;20099;-94
2022/05/18 00:49:40;;;;;;;18.02;9.80;;;;;;;16.00;80.78;98884.53;5111302;28;20101;-95
2022/05/18 00:52:07;;;;;;;15.45;8.55;;;;;;;15.98;81.20;98889.09;5110209;28;20028;-95
2022/05/18 00:54:36;;;;;;;24.23;9.70;;;;;;;15.93;81.62;98891.16;5110248;28;20055;-94
2022/05/18 00:57:08;;;;;;;17.48;9.40;;;;;;;16.03;81.46;98887.09;5109767;28;20067;-95
2022/05/18 00:59:40;;;;;;;19.48;10.20;;;;;;;16.26;81.17;98920.00;5109581;28;20044;-94
2022/05/18 01:02:09;;;;;;;19.08;9.77;;;;;;;16.23;81.00;98908.47;5109154;28;20051;-95
2022/05/18 01:04:37;;;;;;;18.88;10.15;;;;;;;16.15;81.26;98889.19;5109198;28;20048;-93
2022/05/18 01:07:07;;;;;;;24.25;10.57;;;;;;;16.20;81.86;98895.22;5110098;28;20375;-96
2022/05/18 01:09:38;;;;;;;26.92;11.15;;;;;;;16.29;82.67;98888.53;5109453;28;20044;-96
2022/05/18 01:12:07;;;;;;;21.25;10.02;;;;;;;16.46;80.54;98909.19;5109668;28;20044;-94
2022/05/18 01:14:39;;;;;;;19.15;9.70;;;;;;;16.35;79.71;98888.25;5109553;28;20087;-96
2022/05/18 01:17:06;;;;;;;20.77;9.75;;;;;;;16.32;79.43;98887.50;5109839;28;20036;-95
2022/05/18 01:19:36;;;;;;;19.10;9.80;;;;;;;16.20;80.46;98892.53;5109869;28;20047;-94
2022/05/18 01:22:15;;;;;;;23.17;10.43;;;;;;;16.09;81.60;98902.00;5109536;28;20048;-94
2022/05/18 01:24:51;;;;;;;19.67;10.55;;;;;;;16.03;82.38;98892.47;5110625;28;20048;-95
2022/05/18 01:27:18;;;;;;;21.13;10.90;;;;;;;16.06;83.55;98883.41;5100941;28;20048;-94
2022/05/18 01:29:44;;;;;;;16.67;10.13;;;;;;;16.04;84.37;98887.97;5099418;28;20048;-94
2022/05/18 01:32:14;;;;;;;24.88;10.73;;;;;;;16.05;84.89;98897.72;5102037;28;20073;-93
2022/05/18 01:34:44;;;;;;;25.67;10.80;;;;;;;15.93;85.78;98883.97;5107948;28;20047;-94
2022/05/18 01:37:13;;;;;;;22.13;11.15;;;;;;;15.87;86.21;98884.25;5108273;28;20039;-94
2022/05/18 01:39:44;;;;;;;22.23;10.80;;;;;;;15.96;85.90;98891.00;5108976;28;20052;-95
2022/05/18 01:42:21;;;;;;;28.10;12.40;;;;;;;15.93;85.81;98892.00;5108179;28;20093;-96
2022/05/18 01:44:47;;;;;;;22.88;10.48;;;;;;;15.98;85.19;98908.78;5109579;28;20099;-95
2022/05/18 01:47:13;;;;;;;22.88;11.20;;;;;;;15.87;85.34;98892.28;5109055;28;20101;-94
2022/05/18 01:49:43;;;;;;;20.80;10.23;;;;;;;15.85;85.23;98901.34;5107992;28;20083;-94
2022/05/18 01:52:10;;;;;;;24.70;10.73;;;;;;;15.81;86.03;98900.66;5108725;28;20048;-94
2022/05/18 01:54:38;;;;;;;26.55;12.15;;;;;;;16.20;88.72;98927.41;5104635;28;20044;-95
2022/05/18 01:57:05;;;;;;;25.95;12.30;;;;;;;16.18;87.15;98905.16;5108640;28;20363;-94
2022/05/18 01:59:33;;;;;;;25.02;12.38;;;;;;;16.30;86.53;98900.13;5108575;28;20056;-95
2022/05/18 02:01:59;;;;;;;21.87;11.37;;;;;;;16.46;85.46;98908.28;5107378;28;20083;-95
2022/05/18 02:04:26;;;;;;;22.77;12.23;;;;;;;16.51;85.61;98928.59;5107105;28;20272;-94
2022/05/18 02:06:52;;;;;;;23.90;11.52;;;;;;;16.46;84.87;98908.28;5114113;28;20051;-94
2022/05/18 02:09:20;;;;;;;22.60;10.85;;;;;;;16.57;84.93;98930.13;5127799;28;20103;-95
2022/05/18 02:11:46;;;;;;;24.88;11.38;;;;;;;16.54;84.82;98923.06;5128348;28;20393;-95
2022/05/18 02:14:12;;;;;;;18.77;10.77;;;;;;;16.41;84.14;98901.34;5129145;28;20044;-94
2022/05/18 02:16:41;;;;;;;25.20;11.27;;;;;;;16.30;84.26;98906.34;5128373;28;20048;-94
2022/05/18 02:19:07;;;;;;;19.90;10.27;;;;;;;16.17;85.11;98898.03;5117515;28;20139;-95
2022/05/18 02:21:33;;;;;;;25.20;11.15;;;;;;;16.20;85.82;98910.44;5107950;28;20044;-93
2022/05/18 02:23:59;;;;;;;24.63;11.80;;;;;;;16.17;85.62;98899.84;5106551;28;20051;-94
2022/05/18 02:26:26;;;;;;;23.38;10.60;;;;;;;16.40;84.93;98931.81;5107058;28;20040;-94
2022/05/18 02:28:52;;;;;;;22.10;10.88;;;;;;;16.26;84.11;98911.94;5105025;28;20044;-94
2022/05/18 02:31:18;;;;;;;21.42;9.98;;;;;;;16.18;82.81;98915.00;5106836;28;20060;-94
2022/05/18 02:33:46;;;;;;;20.58;10.77;;;;;;;16.03;83.49;98911.25;5109031;28;20027;-96
2022/05/18 02:36:12;;;;;;;26.55;12.40;;;;;;;15.97;84.28;98919.56;5108642;28;20044;-95
2022/05/18 02:38:39;;;;;;;20.92;10.43;;;;;;;15.82;84.57;98916.66;5108222;28;20070;-95
2022/05/18 02:41:05;;;;;;;25.65;10.80;;;;;;;15.63;85.90;98921.06;5108225;28;20067;-95
2022/05/18 02:43:37;;;;;;;24.02;10.65;;;;;;;15.83;85.13;98939.00;5105330;28;20462;-95
2022/05/18 02:46:05;;;;;;;20.48;10.35;;;;;;;15.58;86.42;98920.41;5109534;28;20048;-95
2022/05/18 02:48:32;;;;;;;23.25;10.65;;;;;;;15.41;87.03;98922.03;5108953;28;20099;-95
2022/05/18 02:51:01;;;;;;;28.30;11.10;;;;;;;15.36;86.47;98917.84;5107379;28;20048;-94
2022/05/18 02:53:27;;;;;;;23.15;10.68;;;;;;;15.27;86.94;98915.56;5122236;28;20040;-94
2022/05/18 02:56:09;;;;;;;23.60;11.45;;;;;;;15.15;88.02;98919.63;5119477;28;20128;-93
2022/05/18 02:58:37;;;;;;;21.92;10.50;;;;;;;15.18;89.49;98949.84;5106637;28;20058;-95
2022/05/18 03:01:06;;;;;;;20.75;10.70;;;;;;;14.98;89.54;98918.56;5112418;28;20042;-94
2022/05/18 03:03:33;;;;;;;20.40;10.65;;;;;;;15.00;90.24;98927.38;5127594;28;20044;-96
2022/05/18 03:06:03;;;;;;;22.17;11.70;;;;;;;15.17;90.82;98960.63;5109689;28;20074;-94
2022/05/18 03:08:30;;;;;;;23.77;11.48;;;;;;;14.89;91.73;98926.97;5106447;28;20042;-93
2022/05/18 03:10:56;;;;;;;24.42;11.50;;;;;;;14.88;91.92;98933.28;5107533;28;20505;-94
2022/05/18 03:13:22;;;;;;;33.13;11.93;;;;;;;14.85;91.72;98928.03;5106730;28;20118;-94
2022/05/18 03:15:49;;;;;;;21.30;11.18;;;;;;;14.84;92.21;98928.97;5119629;28;20071;-94
2022/05/18 03:18:16;;;;;;;23.63;11.43;;;;;;;14.89;91.49;98952.88;5128039;28;20067;-95
2022/05/18 03:23:42;;;;;;;26.48;10.90;;;;;;;14.84;90.58;98947.72;5145296;27;20120;-95
2022/05/18 03:26:11;;;;;;;26.92;11.27;;;;;;;14.77;91.01;98948.91;5146181;28;20107;-94
2022/05/18 03:28:40;;;;;;;22.95;10.48;;;;;;;14.72;91.71;98949.09;5145740;27;20044;-95
2022/05/18 03:31:06;;;;;;;22.75;10.80;;;;;;;14.55;92.81;98933.75;5146532;27;20051;-94
2022/05/18 03:33:33;;;;;;;21.90;10.98;;;;;;;14.50;92.89;98933.00;5146402;28;20040;-95
2022/05/18 03:36:00;;;;;;;24.65;11.18;;;;;;;14.53;91.94;98932.91;5146491;28;20039;-94
2022/05/18 03:38:26;;;;;;;23.52;11.70;;;;;;;14.52;91.89;98930.28;5145899;27;20051;-94
2022/05/18 03:40:54;;;;;;;25.52;11.40;;;;;;;14.51;92.12;98936.56;5146217;27;20047;-94
2022/05/18 03:43:21;;;;;;;28.27;11.30;;;;;;;14.43;92.75;98952.06;5145700;27;20046;-94
2022/05/18 03:45:47;;;;;;;24.20;10.68;;;;;;;14.24;94.79;98941.19;5146074;27;20374;-95
2022/05/18 03:48:14;;;;;;;22.55;10.25;;;;;;;14.25;94.14;98945.59;5145748;28;20040;-94
2022/05/18 03:50:44;;;;;;;25.27;11.43;;;;;;;14.26;93.61;98934.84;5145115;27;20039;-95
2022/05/18 03:53:11;;;;;;;24.75;11.30;;;;;;;14.29;93.08;98939.19;5145489;28;20045;-94
2022/05/18 03:55:39;;;;;;;23.77;11.75;;;;;;;14.28;93.55;98948.19;5145573;27;20061;-95
2022/05/18 03:58:09;;;;;;;23.87;11.60;;;;;;;14.45;93.31;98967.13;5146841;28;20043;-96
2022/05/18 04:00:35;;;;;;;24.05;11.45;;;;;;;14.30;92.70;98947.19;5145359;28;20520;-94
2022/05/18 04:03:02;;;;;;;23.65;11.27;;;;;;;14.38;92.97;98968.28;5145284;27;20130;-94
2022/05/18 04:05:30;;;;;;;28.50;11.80;;;;;;;14.26;94.11;98950.03;5144794;27;20051;-94
2022/05/18 04:07:56;;;;;;;22.30;12.25;;;;;;;14.20;94.89;98950.28;5143547;27;20044;-95
2022/05/18 04:10:25;;;;;;;24.27;11.25;;;;;;;14.36;94.51;98989.75;5144183;28;20043;-96
2022/05/18 04:12:51;;;;;;;22.60;11.48;;;;;;;14.17;93.66;98962.84;5144237;27;20449;-95
2022/05/18 04:15:18;;;;;;;25.75;11.30;;;;;;;14.29;93.48;98972.19;5144318;27;20103;-95
2022/05/18 04:17:46;;;;;;;27.00;11.77;;;;;;;14.30;93.29;98978.41;5145142;28;20063;-94
2022/05/18 04:20:18;;;;;;;20.95;10.88;;;;;;;14.22;93.76;98970.69;5145044;27;20464;-94
2022/05/18 04:22:45;;;;;;;26.13;11.52;;;;;;;14.25;93.71;98967.91;5144613;27;20072;-95
2022/05/18 04:25:14;;;;;;;21.40;10.40;;;;;;;14.17;94.32;98973.53;5145154;27;20050;-95
2022/05/18 04:27:40;;;;;;;29.33;12.13;;;;;;;14.18;95.08;98977.06;5145038;27;20036;-94
2022/05/18 04:30:07;;;;;;;27.55;12.38;;;;;;;14.17;95.58;98973.53;5144596;28;20047;-94
2022/05/18 04:32:37;;;;;;;21.55;10.90;;;;;;;14.26;94.85;98982.13;5144551;27;20047;-95
2022/05/18 04:35:05;;;;;;;23.27;11.50;;;;;;;14.29;95.43;98977.56;5128755;28;20047;-95
2022/05/18 04:37:31;;;;;;;19.55;11.85;;;;;;;14.38;94.81;98984.34;5130880;28;20055;-95
2022/05/18 04:39:57;;;;;;;25.20;12.10;;;;;;;14.45;95.46;98982.31;5130442;28;20048;-95
2022/05/18 04:42:23;;;;;;;27.60;12.63;;;;;;;14.53;95.86;98978.38;5130992;28;20036;-95
2022/05/18 04:44:50;;;;;;;27.85;13.95;;;;;;;14.67;95.33;98983.22;5129234;28;20489;-95
2022/05/18 04:47:16;;;;;;;25.35;13.13;;;;;;;14.81;95.09;98996.03;5128453;28;20101;-94
2022/05/18 04:49:44;;;;;;;29.08;14.50;;;;;;;14.82;95.21;98992.44;5124315;28;20040;-95
2022/05/18 04:52:10;;;;;;;35.28;16.27;;;;;;;14.86;95.93;99004.75;5121474;28;20091;-94
2022/05/18 04:54:36;;;;;;;29.98;14.68;;;;;;;14.79;96.12;98998.78;5124405;28;20063;-94
2022/05/18 04:57:02;;;;;;;28.13;13.55;;;;;;;14.89;95.49;99004.63;5127055;28;20043;-94
2022/05/18 04:59:28;;;;;;;26.15;13.88;;;;;;;15.10;94.96;99023.44;5125971;28;20039;-95
2022/05/18 05:01:55;;;;;;;34.92;14.05;;;;;;;15.36;92.88;98999.09;5125977;28;20196;-94
2022/05/18 05:04:21;;;;;;;27.10;13.70;;;;;;;16.06;88.57;98994.25;5128648;28;20039;-94
2022/05/18 05:06:49;;;;;;;26.95;13.48;;;;;;;16.57;84.43;98998.13;5127288;28;20036;-95
2022/05/18 05:09:15;;;;;;;23.40;12.52;;;;;;;16.96;83.28;98994.47;5129593;27;20044;-95
2022/05/18 05:11:42;;;;;;;23.23;11.80;;;;;;;17.44;80.00;99017.13;5130495;28;20108;-95
2022/05/18 05:14:09;;;;;;;26.13;12.07;;;;;;;17.64;79.04;98999.94;5129271;28;20051;-94
2022/05/18 05:16:35;;;;;;;24.65;12.02;;;;;;;17.93;76.31;98999.41;5129498;28;20040;-95
2022/05/18 05:19:02;;;;;;;20.63;11.25;;;;;;;18.16;76.49;99004.41;5129873;28;20047;-94
2022/05/18 05:21:28;;;;;;;22.25;11.23;;;;;;;18.37;75.09;99005.06;5128905;28;20134;-95
2022/05/18 05:23:57;;;;;;;23.80;12.65;;;;;;;18.42;73.49;98999.41;5128880;28;20044;-95
2022/05/18 05:26:23;;;;;;;23.40;11.85;;;;;;;18.59;71.59;99006.56;5124601;28;20043;-92
2022/05/18 05:28:49;;;;;;;23.90;11.75;;;;;;;18.44;74.47;99021.75;5126230;28;20050;-93
2022/05/18 05:31:15;;;;;;;21.02;10.50;;;;;;;18.37;73.35;99010.44;5126289;28;20050;-95
2022/05/18 05:33:42;;;;;;;23.13;11.52;;;;;;;18.61;73.51;99029.75;5124925;28;20088;-95
2022/05/18 05:36:09;;;;;;;21.45;11.73;;;;;;;18.48;73.22;99009.84;5125697;28;20050;-94
2022/05/18 05:38:35;;;;;;;19.33;11.63;;;;;;;18.41;73.44;99009.34;5127400;28;20053;-95
2022/05/18 05:41:09;;;;;;;23.75;11.48;;;;;;;18.84;73.20;99039.25;5121966;27;20040;-94
2022/05/18 05:43:35;;;;;;;26.10;12.27;;;;;;;19.05;69.96;99023.69;5125034;28;20042;-94
2022/05/18 05:46:04;;;;;;;19.55;10.73;;;;;;;19.11;71.29;99029.72;5125409;28;20039;-94
2022/05/18 05:48:51;;;;;;;27.33;11.98;;;;;;;19.02;71.91;99031.09;5118562;28;20047;-94
2022/05/18 05:51:27;;;;;;;21.95;11.50;;;;;;;19.13;70.76;99025.97;5125996;28;20043;-94
2022/05/18 05:53:55;;;;;;;24.70;11.60;;;;;;;19.40;71.08;99050.44;5128993;28;20451;-94
2022/05/18 05:56:44;;;;;;;26.70;12.18;;;;;;;19.64;69.70;99056.19;5127951;28;20048;-95
2022/05/18 05:59:28;;;;;;;27.15;10.82;;;;;;;19.68;69.18;99051.50;5124659;28;20059;-94
2022/05/18 06:02:08;;;;;;;21.23;11.05;;;;;;;19.76;68.62;99040.28;5130057;28;20043;-94
2022/05/18 06:04:47;;;;;;;20.60;11.18;;;;;;;19.99;68.89;99055.91;5125060;28;20066;-91
2022/05/18 06:08:07;;;;;;;22.77;10.93;;;;;;;20.00;67.71;99054.13;5109888;28;20048;-95
2022/05/18 06:10:44;;;;;;;18.85;10.93;;;;;;;20.08;67.44;99055.38;5102659;28;20051;-95
2022/05/18 06:13:12;;;;;;;21.13;11.25;;;;;;;20.09;67.64;99035.50;5102196;28;20040;-95
2022/05/18 06:15:38;;;;;;;21.50;11.25;;;;;;;20.22;66.78;99054.50;5111388;28;20134;-93
2022/05/18 06:18:05;;;;;;;25.20;12.13;;;;;;;20.21;67.50;99047.38;5118353;28;20069;-94
2022/05/18 06:20:31;;;;;;;18.63;10.55;;;;;;;20.20;66.97;99039.38;5119817;28;20050;-93
2022/05/18 06:22:58;;;;;;;22.05;11.10;;;;;;;20.39;66.68;99050.75;5117036;28;20435;-94
2022/05/18 06:25:24;;;;;;;22.10;10.65;;;;;;;20.44;66.56;99042.38;5119977;28;20047;-94
2022/05/18 06:27:50;;;;;;;20.85;10.25;;;;;;;20.54;66.40;99046.22;5121421;28;20040;-94
2022/05/18 06:30:18;;;;;;;20.63;11.30;;;;;;;20.62;66.33;99057.41;5120899;28;20294;-94
2022/05/18 06:32:44;;;;;;;19.92;11.25;;;;;;;20.60;66.27;99053.09;5120147;28;20388;-94
2022/05/18 06:35:10;;;;;;;20.98;10.98;;;;;;;20.73;65.60;99064.84;5120338;28;20043;-93
2022/05/18 06:37:36;;;;;;;21.98;11.05;;;;;;;20.83;65.00;99060.59;5121499;28;20044;-94
2022/05/18 06:40:03;;;;;;;24.00;10.43;;;;;;;20.87;65.14;99050.47;5121568;28;20042;-94
2022/05/18 06:42:29;;;;;;;20.27;11.38;;;;;;;20.92;64.89;99045.59;5119855;28;20107;-95
2022/05/18 06:44:55;;;;;;;22.63;11.05;;;;;;;21.08;64.03;99061.72;5119594;28;20043;-94
2022/05/18 06:47:22;;;;;;;17.73;10.90;;;;;;;21.15;63.53;99054.94;5119350;28;20050;-95
2022/05/18 06:49:48;;;;;;;23.98;11.77;;;;;;;21.04;63.72;99050.22;5121556;28;20047;-95
2022/05/18 06:52:14;;;;;;;27.88;11.07;;;;;;;21.35;64.09;99077.94;5121224;28;20040;-95
2022/05/18 06:54:40;;;;;;;24.15;10.93;;;;;;;21.52;62.68;99056.06;5121744;28;20036;-93
2022/05/18 06:57:06;;;;;;;23.08;10.95;;;;;;;21.73;62.38;99067.28;5121023;28;20443;-94
2022/05/18 06:59:32;;;;;;;21.20;11.07;;;;;;;21.67;61.79;99056.88;5120895;28;20043;-94
2022/05/18 07:01:58;;;;;;;16.92;10.00;;;;;;;21.93;61.77;99065.03;5121409;28;20500;-95
2022/05/18 07:04:25;;;;;;;21.98;10.30;;;;;;;22.11;60.77;99054.75;5118472;28;20500;-95
2022/05/18 07:06:51;;;;;;;23.88;10.77;;;;;;;22.41;61.19;99072.59;5117150;28;20519;-94
2022/05/18 07:09:21;;;;;;;21.15;10.48;;;;;;;22.63;59.54;99055.66;5115399;28;20135;-94
2022/05/18 07:11:49;;;;;;;24.80;10.38;;;;;;;22.83;58.91;99062.31;5117068;28;20040;-94
2022/05/18 07:14:16;;;;;;;21.73;10.52;;;;;;;22.86;58.95;99075.69;5117270;28;20114;-94
2022/05/18 07:16:43;;;;;;;23.60;10.00;;;;;;;22.94;59.23;99056.97;5116163;28;20079;-94
2022/05/18 07:19:10;;;;;;;21.00;10.02;;;;;;;23.19;58.49;99063.34;5116941;28;20036;-94
2022/05/18 07:21:37;;;;;;;17.50;9.20;;;;;;;23.42;57.19;99059.78;5116613;28;20123;-94
2022/05/18 07:24:04;;;;;;;16.40;10.38;;;;;;;23.54;56.11;99066.97;5097310;28;20087;-95
2022/05/18 07:26:30;;;;;;;16.98;9.05;;;;;;;23.72;56.00;99056.56;5117815;28;20039;-96
2022/05/18 07:28:57;;;;;;;22.70;9.93;;;;;;;23.95;55.39;99057.53;5117149;28;20048;-94
2022/05/18 07:31:23;;;;;;;21.48;9.30;;;;;;;24.12;54.46;99061.66;5120366;28;20122;-93
2022/05/18 07:33:49;;;;;;;16.38;8.65;;;;;;;24.19;55.10;99062.03;5119820;28;20047;-93
2022/05/18 07:36:15;;;;;;;19.70;8.90;;;;;;;24.08;53.41;99073.75;5120693;28;20040;-94
2022/05/18 07:38:43;;;;;;;22.33;9.27;;;;;;;24.26;53.58;99085.03;5122586;28;20073;-94
2022/05/18 07:41:12;;;;;;;24.33;9.60;;;;;;;24.33;53.34;99071.81;5124152;28;20137;-95
2022/05/18 07:43:38;;;;;;;14.45;8.18;;;;;;;24.37;50.70;99057.00;5121794;28;20073;-94
2022/05/18 07:46:05;;;;;;;16.65;7.85;;;;;;;24.54;50.09;99058.41;5122115;28;20047;-94
2022/05/18 07:48:31;;;;;;;16.63;9.02;;;;;;;24.22;52.12;99063.66;5120178;28;20040;-95
2022/05/18 07:50:58;;;;;;;21.88;8.60;;;;;;;23.95;52.29;99078.41;5118624;28;20089;-95
2022/05/18 07:53:25;;;;;;;25.42;8.93;;;;;;;24.24;51.94;99059.81;5122558;28;20083;-95
2022/05/18 07:55:53;;;;;;;20.42;8.77;;;;;;;24.55;51.81;99071.03;5122180;28;20044;-93
2022/05/18 07:58:20;;;;;;;12.90;7.18;;;;;;;24.16;51.01;99062.31;5115866;28;20035;-93
2022/05/18 08:00:47;;;;;;;13.10;7.22;;;;;;;24.17;51.88;99061.28;5119326;28;20068;-92
2022/05/18 08:03:13;;;;;;;13.05;5.80;;;;;;;24.24;50.58;99075.25;5119660;28;20405;-93
2022/05/18 08:05:39;;;;;;;8.75;5.50;;;;;;;24.30;49.01;99061.19;5118477;28;20039;-94
2022/05/18 08:08:06;;;;;;;11.35;5.25;;;;;;;24.49;47.94;99066.06;5118012;28;20051;-93
2022/05/18 08:16:34;;;;;;;13.45;5.40;;;;;;;25.47;47.17;99078.97;5118151;27;20392;-93
2022/05/18 08:19:01;;;;;;;10.55;5.85;;;;;;;25.26;45.51;99092.50;5109036;28;20083;-92
2022/05/18 08:21:27;;;;;;;8.25;5.25;;;;;;;24.95;47.11;99082.25;5109953;28;20208;-94
2022/05/18 08:23:54;;;;;;;11.95;5.85;;;;;;;25.09;47.22;99096.56;5107113;28;20094;-94
2022/05/18 08:26:20;;;;;;;12.15;5.95;;;;;;;24.39;49.37;99077.63;5102804;28;20044;-93
2022/05/18 08:28:46;;;;;;;12.60;5.30;;;;;;;24.76;49.19;99092.91;5106288;28;20051;-91
2022/05/18 08:31:12;;;;;;;9.70;5.93;;;;;;;24.85;48.57;99077.69;5114810;28;20042;-93
2022/05/18 08:33:40;;;;;;;10.80;5.65;;;;;;;25.09;48.63;99102.91;5111854;28;20040;-92
2022/05/18 08:36:07;;;;;;;9.57;5.90;;;;;;;24.74;49.20;99073.97;5105104;28;20067;-93
2022/05/18 08:38:35;;;;;;;8.35;5.75;;;;;;;24.36;50.85;99082.47;5107547;28;20093;-93
2022/05/18 08:41:08;;;;;;;11.18;5.93;;;;;;;24.59;49.76;99067.06;5108414;28;20066;-93
2022/05/18 08:43:37;;;;;;;9.45;5.95;;;;;;;24.84;50.29;99086.84;5102820;28;20055;-93
2022/05/18 08:46:04;;;;;;;;;;;;;;;24.55;51.67;99096.34;5113483;28;20477;-94
2022/05/18 08:48:43;;;;;;;10.10;5.90;;;;;;;25.04;49.65;99094.22;5114365;28;19916;-95
2022/05/18 08:51:23;;;;;;;9.45;6.10;;;;;;;24.71;50.03;99076.09;5104441;28;20046;-94
2022/05/18 08:54:09;;;;;;;12.50;6.05;;;;;;;24.65;51.00;99074.72;5103562;28;20048;-93
2022/05/18 08:56:38;;;;;;;12.20;5.55;;;;;;;24.80;49.15;99084.34;5104741;28;20113;-91
2022/05/18 08:59:09;;;;;;;8.27;4.97;;;;;;;24.86;47.43;99077.56;5108985;28;20056;-92
2022/05/18 09:01:40;;;;;;;8.82;5.20;;;;;;;25.66;46.49;99095.50;5102514;28;20051;-92
2022/05/18 09:04:13;;;;;;;8.10;4.55;;;;;;;25.54;45.39;99083.75;5105724;28;20060;-93
2022/05/18 09:06:46;;;;;;;10.82;4.82;;;;;;;25.41;45.90;99108.41;5109450;28;20105;-92
2022/05/18 09:22:54;;;;;;;9.73;6.10;;;;;;;26.01;45.55;99121.63;6328388;21;1390843;-93
2022/05/18 09:25:35;;;;;;;7.30;5.15;;;;;;;26.26;44.51;99105.88;6382171;22;20533;-91
2022/05/18 09:28:17;;;;;;;7.35;4.90;;;;;;;26.41;44.67;99119.06;6381846;22;20063;-92
2022/05/18 09:30:57;;;;;;;8.68;5.47;;;;;;;25.89;45.24;99106.31;6383187;22;20071;-94
2022/05/18 09:33:53;;;;;;;7.95;5.40;;;;;;;26.28;43.34;99112.94;6382320;22;20067;-93
2022/05/18 09:36:46;;;;;;;10.13;5.07;;;;;;;26.40;43.09;99116.47;6382630;22;20018;-93
2022/05/18 09:39:17;;;;;;;7.95;5.53;;;;;;;26.38;45.34;99100.22;6380646;22;20014;-93
2022/05/18 09:41:47;;;;;;;9.38;5.97;;;;;;;25.94;46.90;99102.22;6382921;22;20015;-96
2022/05/18 09:44:21;;;;;;;10.75;6.22;;;;;;;25.94;47.48;99125.88;6383387;22;19998;-94
2022/05/18 09:46:48;;;;;;;10.80;5.63;;;;;;;25.83;46.50;99118.59;6384561;22;20085;-91
2022/05/18 09:49:23;;;;;;;11.70;6.35;;;;;;;25.51;47.52;99108.53;6383487;22;20440;-93
2022/05/18 09:51:50;;;;;;;7.30;5.53;;;;;;;25.29;48.47;99103.16;6382568;22;20032;-93
2022/05/18 09:54:18;;;;;;;13.88;6.28;;;;;;;25.79;47.26;99128.88;6384976;22;20014;-93
2022/05/18 09:56:51;;;;;;;9.50;5.78;;;;;;;26.20;46.21;99110.03;6384359;22;20053;-92
2022/05/18 09:59:24;;;;;;;8.20;5.35;;;;;;;26.35;45.72;99121.44;6381645;22;20118;-92
2022/05/18 10:08:29;;;;;;;9.38;6.13;;;;;;;25.81;46.69;99123.31;5154358;27;20392;-95
2022/05/18 10:10:57;;;;;;;8.77;6.53;;;;;;;25.57;47.49;99135.25;5147744;27;20043;-95
2022/05/18 10:13:29;;;;;;;9.52;5.82;;;;;;;25.70;47.34;99120.59;5152902;27;20039;-93
2022/05/18 10:16:14;;;;;;;12.45;6.07;;;;;;;26.13;46.14;99096.06;5147290;27;20039;-93
2022/05/18 10:18:43;;;;;;;7.53;5.50;;;;;;;26.84;45.21;99133.53;5140940;27;20050;-94
2022/05/18 10:21:20;;;;;;;8.15;5.80;;;;;;;26.66;44.05;99116.94;5145153;27;20050;-91
2022/05/18 10:23:56;;;;;;;7.47;5.05;;;;;;;26.79;42.71;99109.38;5145346;27;20031;-92
2022/05/18 10:26:26;;;;;;;10.13;5.22;;;;;;;27.04;43.32;99110.78;5149579;27;20014;-90
2022/05/18 10:28:56;;;;;;;8.13;5.53;;;;;;;27.36;42.97;99108.91;5145473;27;20400;-90
2022/05/18 10:31:26;;;;;;;7.88;6.00;;;;;;;27.16;44.81;99122.47;5140789;27;20043;-92
2022/05/18 10:34:12;;;;;;;11.80;6.47;;;;;;;26.76;45.46;99117.84;5145552;27;20108;-93
2022/05/18 10:36:42;;;;;;;9.98;6.53;;;;;;;26.91;44.11;99125.66;5145804;27;20047;-92
2022/05/18 10:39:10;;;;;;;12.25;6.32;;;;;;;27.19;44.09;99124.91;5136743;27;20097;-91
2022/05/18 10:41:41;;;;;;;9.45;5.38;;;;;;;27.41;43.41;99128.44;5144990;27;21069;-91
2022/05/18 10:44:13;;;;;;;9.63;6.18;;;;;;;27.32;42.78;99112.91;5150122;27;20161;-91
2022/05/18 10:46:41;;;;;;;13.27;5.82;;;;;;;27.41;44.31;99107.50;5137270;27;20125;-92
2022/05/18 10:49:10;;;;;;;8.05;5.88;;;;;;;27.08;44.21;99105.91;5142286;27;20038;-89
2022/05/18 10:51:43;;;;;;;10.45;6.28;;;;;;;26.39;44.83;99126.50;5148690;27;20397;-93
2022/05/18 10:54:18;;;;;;;8.40;6.40;;;;;;;25.99;45.73;99112.72;5149139;27;20122;-95
2022/05/18 10:56:45;;;;;;;9.07;6.03;;;;;;;26.35;45.61;99125.03;5142720;27;20153;-93
2022/05/18 10:59:20;;;;;;;10.77;7.20;;;;;;;25.71;46.98;99116.91;5141527;27;20050;-91
2022/05/18 11:01:54;;;;;;;9.45;6.50;;;;;;;25.61;47.24;99116.78;5146573;27;20473;-92
2022/05/18 11:04:29;;;;;;;10.68;6.35;;;;;;;25.40;48.67;99119.47;5145794;27;20521;-90
2022/05/18 11:06:58;;;;;;;10.90;6.72;;;;;;;25.65;48.73;99123.72;5140653;27;20055;-93
2022/05/18 11:09:29;;;;;;;11.35;7.13;;;;;;;26.06;46.77;99143.03;5146718;27;20031;-91
2022/05/18 11:12:00;;;;;;;14.52;7.35;;;;;;;25.92;48.30;99142.34;5144743;27;20507;-89
2022/05/18 11:14:37;;;;;;;13.63;8.13;;;;;;;25.65;48.48;99140.06;5158175;27;20031;-96
2022/05/18 11:17:11;;;;;;;10.93;6.68;;;;;;;25.41;49.62;99151.97;5152810;27;20559;-95
2022/05/18 11:19:48;;;;;;;12.45;6.88;;;;;;;25.88;48.28;99134.53;5131922;27;20046;-95
2022/05/18 11:22:24;;;;;;;9.73;7.00;;;;;;;26.19;47.85;99141.84;5124014;28;20051;-94
2022/05/18 11:25:02;;;;;;;10.75;7.05;;;;;;;26.56;47.20;99133.22;5136055;27;20099;-94
2022/05/18 11:27:33;;;;;;;10.80;7.07;;;;;;;26.00;47.60;99130.78;5132254;27;20038;-95
2022/05/18 11:30:06;;;;;;;10.35;7.78;;;;;;;25.78;49.32;99137.16;5125753;27;20333;-96
2022/05/18 11:32:43;;;;;;;9.82;6.80;;;;;;;26.32;47.63;99152.56;5126070;27;20039;-92
2022/05/18 11:35:28;;;;;;;14.13;7.10;;;;;;;26.15;46.62;99145.81;5127908;27;20042;-94
2022/05/18 11:38:26;;;;;;;10.82;6.88;;;;;;;26.27;44.87;99154.84;5126438;27;20051;-94
2022/05/18 11:41:05;;;;;;;10.27;6.60;;;;;;;26.10;46.08;99141.78;5126782;27;20043;-94
2022/05/18 11:43:46;;;;;;;11.70;7.20;;;;;;;26.36;46.89;99154.03;5132635;27;20444;-92
2022/05/18 11:46:42;;;;;;;11.05;6.88;;;;;;;26.08;46.75;99139.19;5123194;27;20035;-91
2022/05/18 11:49:17;;;;;;;12.07;7.03;;;;;;;26.16;46.40;99138.53;5103932;27;20122;-93
2022/05/18 11:52:08;;;;;;;12.43;7.15;;;;;;;26.33;45.49;99132.50;5126686;27;20140;-93
2022/05/18 11:54:51;;;;;;;10.98;6.18;;;;;;;26.37;44.27;99142.16;5130792;27;20047;-92
2022/05/18 11:57:34;;;;;;;14.07;6.00;;;;;;;26.18;44.26;99136.56;5134350;27;20035;-92
2022/05/18 12:00:09;;;;;;;8.32;5.45;;;;;;;26.11;42.10;99138.06;5135301;27;20039;-95
2022/05/18 12:03:00;;;;;;;7.93;5.60;;;;;;;26.11;41.90;99122.59;5131173;27;20047;-94